Weather at Indiantown Airport

Public forecast

Using degrees Fahrenheit for public forecast. Weather courtesy of forecast.io.

Closest aviation weather report (METAR) to Indiantown Airport

Closest report is Witham Field, 14.6 nm (27.0 km) NE. Retrieved 2020/09/27 03:15 UTC (0 seconds ago):

KSUA 270315Z AUTO 00000KT 10SM SCT031 SCT039 27/24 A3002 RMK AO2 LTG DSNT NW

Closest aviation forecast (TAF) to Indiantown Airport

Closest forecast is Witham Field, 14.6 nm (27.0 km) NE. Retrieved 2020-09-27 00:27 UTC (3 hours ago):

TAF KSUA 262324Z 2700/2724 VRB03KT P6SM FEW040 FM271400 09007KT P6SM SCT030 FM271800 10009KT P6SM VCSH SCT035